Fort Smith Regional Airport
KFSM : now visible

Airfield :











YOU CAN JOIN US ON...

 
LOGIN :

Register | Disclaimer

   EN    FR    IT 

 









Legend :    VFR   Marginal VFR   IFR   Intensive IFR   Very Intensive IFR
Visi :
Ceiling :
>= 8 km
>= 3000ft
5 to 8 km
1000 to 3000 ft
1500m to 5 km
500 to 1000 ft
800 to 1500m
200 to 500 ft
< 800m
< 200 ft
Symbols :   Thunderstorms  Fog  Heavy snow  Heavy precipitations  Wind > 20 kt






- Airport Elevation : 469 ft
- IATA code : FSM


KFSM - Fort Smith Regional

CURRENT METAR :
  • 272253Z 01003KT 10SM OVC005 08/08 A3012 RMK AO2 RAE27 SLP201 P0001 T00830078

EXPIRED METARs :
  • 272225Z 03003KT 4SM -RA BR OVC005 08/08 A3012 RMK AO2 P0001 T00830078
  • 272204Z 01004KT 4SM -RA BR OVC004 08/07 A3012 RMK AO2 P0000 T00830072
  • 272153Z 02003KT 3SM -RA BR OVC006 08/07 A3012 RMK AO2 RAB52 SLP199 P0000 T00830072
  • 272053Z 08005KT 10SM OVC009 08/07 A3012 RMK AO2 SLP202 60000 T00830072 56024

TAF KFSM
Valid from the 27 at 18:00 until the 28 at 18:00 UTC


271720Z 2718/2818 04005KT 5SM BR BKN008 OVC014
FM280000 VRB04KT 5SM BR OVC004
FM280600 VRB03KT 4SM BR OVC005
PROB30 2806/2812 2SM -SHRA OVC003
FM281200 06005KT 5SM SHRA OVC006
FM281600 09007KT 3SM SHRA OVC005
KZME FIR / North America



MET'MAP, your aeronautical weather chart ! - Copyright ORBIFLY December 2007 - Disclaimer

ORBIFLY MET'MAP TEAM :

Programming & Development : Alexandra Zaïnal
Concept & original design : Baudouin d'Aumeries
Assistance for programming : Marc-Olivier Méhu
Technical & hardware support : Manuel Goepfert

Contact : metmap@orbifly.com




SOURCES & CREDITS :

   NOAA       Earth
Advisory